sensor_id;sensor_type;location;lat;lon;timestamp;temperature;humidity
15713;DHT22;7957;51.608;6.916;2023-02-28T00:00:02;0.60;99.90
15713;DHT22;7957;51.608;6.916;2023-02-28T00:02:34;0.60;99.90
15713;DHT22;7957;51.608;6.916;2023-02-28T00:05:01;0.60;99.90
15713;DHT22;7957;51.608;6.916;2023-02-28T00:07:29;0.60;99.90
15713;DHT22;7957;51.608;6.916;2023-02-28T00:09:56;0.50;99.90
15713;DHT22;7957;51.608;6.916;2023-02-28T00:12:24;0.50;99.90
15713;DHT22;7957;51.608;6.916;2023-02-28T00:14:51;0.50;99.90
15713;DHT22;7957;51.608;6.916;2023-02-28T00:17:20;0.50;99.90
15713;DHT22;7957;51.608;6.916;2023-02-28T00:19:48;0.50;99.90
15713;DHT22;7957;51.608;6.916;2023-02-28T00:22:15;0.50;99.90
15713;DHT22;7957;51.608;6.916;2023-02-28T00:24:42;0.50;99.90
15713;DHT22;7957;51.608;6.916;2023-02-28T00:27:09;0.50;99.90
15713;DHT22;7957;51.608;6.916;2023-02-28T00:29:38;0.40;99.90
15713;DHT22;7957;51.608;6.916;2023-02-28T00:32:05;0.40;99.90
15713;DHT22;7957;51.608;6.916;2023-02-28T00:34:32;0.40;99.90
15713;DHT22;7957;51.608;6.916;2023-02-28T00:37:03;0.40;99.90
15713;DHT22;7957;51.608;6.916;2023-02-28T00:39:31;0.40;99.90
15713;DHT22;7957;51.608;6.916;2023-02-28T00:41:59;0.40;99.90
15713;DHT22;7957;51.608;6.916;2023-02-28T00:44:27;0.40;99.90
15713;DHT22;7957;51.608;6.916;2023-02-28T00:46:56;0.40;99.90
15713;DHT22;7957;51.608;6.916;2023-02-28T00:49:23;0.30;1.00
15713;DHT22;7957;51.608;6.916;2023-02-28T00:51:50;0.40;1.00
15713;DHT22;7957;51.608;6.916;2023-02-28T00:54:17;0.30;1.00
15713;DHT22;7957;51.608;6.916;2023-02-28T00:56:45;0.30;1.00
15713;DHT22;7957;51.608;6.916;2023-02-28T00:59:12;0.30;1.00
15713;DHT22;7957;51.608;6.916;2023-02-28T01:01:39;0.30;1.00
15713;DHT22;7957;51.608;6.916;2023-02-28T01:04:08;0.30;1.00
15713;DHT22;7957;51.608;6.916;2023-02-28T01:06:35;0.30;1.00
15713;DHT22;7957;51.608;6.916;2023-02-28T01:09:03;0.30;1.00
15713;DHT22;7957;51.608;6.916;2023-02-28T01:11:31;0.30;1.00
15713;DHT22;7957;51.608;6.916;2023-02-28T01:13:58;0.30;1.00
15713;DHT22;7957;51.608;6.916;2023-02-28T01:16:26;0.20;1.00
15713;DHT22;7957;51.608;6.916;2023-02-28T01:18:53;0.20;1.00
15713;DHT22;7957;51.608;6.916;2023-02-28T01:21:22;0.20;1.00
15713;DHT22;7957;51.608;6.916;2023-02-28T01:23:49;0.20;1.00
15713;DHT22;7957;51.608;6.916;2023-02-28T01:26:19;0.20;1.00
15713;DHT22;7957;51.608;6.916;2023-02-28T01:28:46;0.20;1.00
15713;DHT22;7957;51.608;6.916;2023-02-28T01:31:14;0.20;1.00
15713;DHT22;7957;51.608;6.916;2023-02-28T01:33:41;0.20;1.00
15713;DHT22;7957;51.608;6.916;2023-02-28T01:36:10;0.20;1.00
15713;DHT22;7957;51.608;6.916;2023-02-28T01:38:39;0.20;1.00
15713;DHT22;7957;51.608;6.916;2023-02-28T01:41:06;0.20;1.00
15713;DHT22;7957;51.608;6.916;2023-02-28T01:43:52;0.20;1.00
15713;DHT22;7957;51.608;6.916;2023-02-28T01:46:20;0.20;1.00
15713;DHT22;7957;51.608;6.916;2023-02-28T01:48:51;0.20;1.00
15713;DHT22;7957;51.608;6.916;2023-02-28T01:51:21;0.20;1.00
15713;DHT22;7957;51.608;6.916;2023-02-28T01:53:53;0.10;1.00
15713;DHT22;7957;51.608;6.916;2023-02-28T01:56:25;0.10;1.00
15713;DHT22;7957;51.608;6.916;2023-02-28T01:58:54;0.10;1.00
15713;DHT22;7957;51.608;6.916;2023-02-28T02:01:22;0.10;1.00
15713;DHT22;7957;51.608;6.916;2023-02-28T02:03:53;0.10;1.00
15713;DHT22;7957;51.608;6.916;2023-02-28T02:06:22;0.10;1.00
15713;DHT22;7957;51.608;6.916;2023-02-28T02:08:51;0.00;1.00
15713;DHT22;7957;51.608;6.916;2023-02-28T02:11:19;0.00;1.00
15713;DHT22;7957;51.608;6.916;2023-02-28T02:14:13;0.00;1.00
15713;DHT22;7957;51.608;6.916;2023-02-28T02:16:52;0.00;1.00
15713;DHT22;7957;51.608;6.916;2023-02-28T02:19:52;0.00;1.00
15713;DHT22;7957;51.608;6.916;2023-02-28T02:25:35;-0.10;1.00
15713;DHT22;7957;51.608;6.916;2023-02-28T02:28:34;-0.10;1.00
15713;DHT22;7957;51.608;6.916;2023-02-28T02:31:33;-0.10;1.00
15713;DHT22;7957;51.608;6.916;2023-02-28T02:34:26;-0.10;1.00
15713;DHT22;7957;51.608;6.916;2023-02-28T02:36:58;-0.10;20.20
15713;DHT22;7957;51.608;6.916;2023-02-28T02:39:31;-0.20;24.40
15713;DHT22;7957;51.608;6.916;2023-02-28T02:42:05;-0.20;30.40
15713;DHT22;7957;51.608;6.916;2023-02-28T02:44:40;-0.20;45.70
15713;DHT22;7957;51.608;6.916;2023-02-28T02:47:13;-0.20;65.30
15713;DHT22;7957;51.608;6.916;2023-02-28T02:49:45;-0.20;70.50
15713;DHT22;7957;51.608;6.916;2023-02-28T02:52:16;-0.20;94.50
15713;DHT22;7957;51.608;6.916;2023-02-28T02:54:47;-0.30;99.90
15713;DHT22;7957;51.608;6.916;2023-02-28T02:57:20;-0.30;99.90
15713;DHT22;7957;51.608;6.916;2023-02-28T02:59:50;-0.30;99.90
15713;DHT22;7957;51.608;6.916;2023-02-28T03:02:18;-0.30;99.90
15713;DHT22;7957;51.608;6.916;2023-02-28T03:04:51;-0.30;99.90
15713;DHT22;7957;51.608;6.916;2023-02-28T03:07:19;-0.30;99.90
15713;DHT22;7957;51.608;6.916;2023-02-28T03:09:52;-0.30;99.90
15713;DHT22;7957;51.608;6.916;2023-02-28T03:12:21;-0.30;99.90
15713;DHT22;7957;51.608;6.916;2023-02-28T03:14:56;-0.30;99.90
15713;DHT22;7957;51.608;6.916;2023-02-28T03:17:40;-0.30;99.90
15713;DHT22;7957;51.608;6.916;2023-02-28T03:20:18;-0.40;99.90
15713;DHT22;7957;51.608;6.916;2023-02-28T03:23:01;-0.40;99.90
15713;DHT22;7957;51.608;6.916;2023-02-28T03:25:35;-0.40;99.90
15713;DHT22;7957;51.608;6.916;2023-02-28T03:28:09;-0.40;99.90
15713;DHT22;7957;51.608;6.916;2023-02-28T03:30:42;-0.40;99.90
15713;DHT22;7957;51.608;6.916;2023-02-28T03:33:14;-0.50;99.90
15713;DHT22;7957;51.608;6.916;2023-02-28T03:35:45;-0.50;99.90
15713;DHT22;7957;51.608;6.916;2023-02-28T03:38:19;-0.50;99.90
15713;DHT22;7957;51.608;6.916;2023-02-28T03:40:51;-0.50;99.90
15713;DHT22;7957;51.608;6.916;2023-02-28T03:43:22;-0.50;99.90
15713;DHT22;7957;51.608;6.916;2023-02-28T03:45:52;-0.50;99.90
15713;DHT22;7957;51.608;6.916;2023-02-28T03:48:24;-0.50;99.90
15713;DHT22;7957;51.608;6.916;2023-02-28T03:50:55;-0.50;99.90
15713;DHT22;7957;51.608;6.916;2023-02-28T03:53:27;-0.50;99.90
15713;DHT22;7957;51.608;6.916;2023-02-28T03:55:59;-0.60;99.90
15713;DHT22;7957;51.608;6.916;2023-02-28T03:58:32;-0.60;99.90
15713;DHT22;7957;51.608;6.916;2023-02-28T04:01:07;-0.60;99.90
15713;DHT22;7957;51.608;6.916;2023-02-28T04:03:36;-0.60;99.90
15713;DHT22;7957;51.608;6.916;2023-02-28T04:06:07;-0.60;99.90
15713;DHT22;7957;51.608;6.916;2023-02-28T04:08:34;-0.60;99.90
15713;DHT22;7957;51.608;6.916;2023-02-28T04:11:05;-0.60;99.90
15713;DHT22;7957;51.608;6.916;2023-02-28T04:13:33;-0.70;99.90
15713;DHT22;7957;51.608;6.916;2023-02-28T04:16:00;-0.70;99.90
15713;DHT22;7957;51.608;6.916;2023-02-28T04:18:27;-0.70;99.90
15713;DHT22;7957;51.608;6.916;2023-02-28T04:20:54;-0.70;99.90
15713;DHT22;7957;51.608;6.916;2023-02-28T04:23:23;-0.70;99.90
15713;DHT22;7957;51.608;6.916;2023-02-28T04:25:50;-0.80;99.90
15713;DHT22;7957;51.608;6.916;2023-02-28T04:28:17;-0.70;99.90
15713;DHT22;7957;51.608;6.916;2023-02-28T04:30:44;-0.70;99.90
15713;DHT22;7957;51.608;6.916;2023-02-28T04:33:11;-0.80;99.90
15713;DHT22;7957;51.608;6.916;2023-02-28T04:35:40;-0.80;99.90
15713;DHT22;7957;51.608;6.916;2023-02-28T04:38:07;-0.80;99.90
15713;DHT22;7957;51.608;6.916;2023-02-28T04:40:36;-0.80;99.90
15713;DHT22;7957;51.608;6.916;2023-02-28T04:43:03;-0.90;99.90
15713;DHT22;7957;51.608;6.916;2023-02-28T04:45:30;-0.80;99.90
15713;DHT22;7957;51.608;6.916;2023-02-28T04:47:59;-0.90;1.00
15713;DHT22;7957;51.608;6.916;2023-02-28T04:50:26;-0.90;1.00
15713;DHT22;7957;51.608;6.916;2023-02-28T04:52:53;-0.90;1.00
15713;DHT22;7957;51.608;6.916;2023-02-28T04:55:20;-0.90;1.00
15713;DHT22;7957;51.608;6.916;2023-02-28T04:57:49;-0.90;1.00
15713;DHT22;7957;51.608;6.916;2023-02-28T05:00:16;-0.90;1.00
15713;DHT22;7957;51.608;6.916;2023-02-28T05:02:43;-0.90;1.00
15713;DHT22;7957;51.608;6.916;2023-02-28T05:05:10;-0.90;1.00
15713;DHT22;7957;51.608;6.916;2023-02-28T05:07:43;-0.90;1.00
15713;DHT22;7957;51.608;6.916;2023-02-28T05:10:11;-1.00;1.00
15713;DHT22;7957;51.608;6.916;2023-02-28T05:12:38;-0.90;1.00
15713;DHT22;7957;51.608;6.916;2023-02-28T05:15:12;-1.00;1.00
15713;DHT22;7957;51.608;6.916;2023-02-28T05:17:40;-1.00;1.00
15713;DHT22;7957;51.608;6.916;2023-02-28T05:20:08;-1.00;1.00
15713;DHT22;7957;51.608;6.916;2023-02-28T05:22:36;-1.00;1.00
15713;DHT22;7957;51.608;6.916;2023-02-28T05:25:03;-1.00;1.00
15713;DHT22;7957;51.608;6.916;2023-02-28T05:27:31;-1.00;1.00
15713;DHT22;7957;51.608;6.916;2023-02-28T05:29:58;-1.00;1.00
15713;DHT22;7957;51.608;6.916;2023-02-28T05:32:29;-1.00;1.00
15713;DHT22;7957;51.608;6.916;2023-02-28T05:34:56;-1.00;1.00
15713;DHT22;7957;51.608;6.916;2023-02-28T05:37:23;-1.00;1.00
15713;DHT22;7957;51.608;6.916;2023-02-28T05:39:50;-1.10;1.00
15713;DHT22;7957;51.608;6.916;2023-02-28T05:42:17;-1.10;1.00
15713;DHT22;7957;51.608;6.916;2023-02-28T05:44:44;-1.10;1.00
15713;DHT22;7957;51.608;6.916;2023-02-28T05:47:12;-1.10;1.00
15713;DHT22;7957;51.608;6.916;2023-02-28T05:49:42;-1.10;1.00
15713;DHT22;7957;51.608;6.916;2023-02-28T05:52:14;-1.20;1.00
15713;DHT22;7957;51.608;6.916;2023-02-28T05:54:41;-1.20;1.00
15713;DHT22;7957;51.608;6.916;2023-02-28T05:57:08;-1.10;1.00
15713;DHT22;7957;51.608;6.916;2023-02-28T05:59:41;-1.20;1.00
15713;DHT22;7957;51.608;6.916;2023-02-28T06:02:12;-1.20;1.00
15713;DHT22;7957;51.608;6.916;2023-02-28T06:04:40;-1.20;1.00
15713;DHT22;7957;51.608;6.916;2023-02-28T06:07:09;-1.20;1.00
15713;DHT22;7957;51.608;6.916;2023-02-28T06:09:36;-1.20;1.00
15713;DHT22;7957;51.608;6.916;2023-02-28T06:12:05;-1.20;1.00
15713;DHT22;7957;51.608;6.916;2023-02-28T06:14:34;-1.20;1.00
15713;DHT22;7957;51.608;6.916;2023-02-28T06:17:02;-1.20;1.00
15713;DHT22;7957;51.608;6.916;2023-02-28T06:19:29;-1.20;1.00
15713;DHT22;7957;51.608;6.916;2023-02-28T06:21:57;-1.20;1.00
15713;DHT22;7957;51.608;6.916;2023-02-28T06:24:27;-1.30;1.00
15713;DHT22;7957;51.608;6.916;2023-02-28T06:27:03;-1.30;1.00
15713;DHT22;7957;51.608;6.916;2023-02-28T06:29:31;-1.30;1.00
15713;DHT22;7957;51.608;6.916;2023-02-28T06:31:58;-1.30;1.00
15713;DHT22;7957;51.608;6.916;2023-02-28T06:34:26;-1.30;1.00
15713;DHT22;7957;51.608;6.916;2023-02-28T06:36:53;-1.30;1.00
15713;DHT22;7957;51.608;6.916;2023-02-28T06:39:20;-1.30;1.00
15713;DHT22;7957;51.608;6.916;2023-02-28T06:41:48;-1.30;1.00
15713;DHT22;7957;51.608;6.916;2023-02-28T06:44:18;-1.30;1.00
15713;DHT22;7957;51.608;6.916;2023-02-28T06:46:46;-1.30;1.00
15713;DHT22;7957;51.608;6.916;2023-02-28T06:49:13;-1.30;1.00
15713;DHT22;7957;51.608;6.916;2023-02-28T06:51:41;-1.30;1.00
15713;DHT22;7957;51.608;6.916;2023-02-28T06:54:10;-1.30;1.00
15713;DHT22;7957;51.608;6.916;2023-02-28T06:56:37;-1.30;1.00
15713;DHT22;7957;51.608;6.916;2023-02-28T06:59:06;-1.30;1.00
15713;DHT22;7957;51.608;6.916;2023-02-28T07:01:33;-1.30;1.00
15713;DHT22;7957;51.608;6.916;2023-02-28T07:04:00;-1.30;1.00
15713;DHT22;7957;51.608;6.916;2023-02-28T07:06:28;-1.30;1.00
15713;DHT22;7957;51.608;6.916;2023-02-28T07:08:55;-1.30;1.00
15713;DHT22;7957;51.608;6.916;2023-02-28T07:11:24;-1.30;1.00
15713;DHT22;7957;51.608;6.916;2023-02-28T07:13:51;-1.30;1.00
15713;DHT22;7957;51.608;6.916;2023-02-28T07:16:22;-1.30;1.00
15713;DHT22;7957;51.608;6.916;2023-02-28T07:18:51;-1.30;1.00
15713;DHT22;7957;51.608;6.916;2023-02-28T07:21:19;-1.30;1.00
15713;DHT22;7957;51.608;6.916;2023-02-28T07:23:46;-1.20;1.00
15713;DHT22;7957;51.608;6.916;2023-02-28T07:26:15;-1.20;1.00
15713;DHT22;7957;51.608;6.916;2023-02-28T07:28:44;-1.20;22.60
15713;DHT22;7957;51.608;6.916;2023-02-28T07:31:12;-1.20;39.30
15713;DHT22;7957;51.608;6.916;2023-02-28T07:33:44;-1.10;68.70
15713;DHT22;7957;51.608;6.916;2023-02-28T07:36:12;-1.10;91.80
15713;DHT22;7957;51.608;6.916;2023-02-28T07:38:41;-1.10;99.90
15713;DHT22;7957;51.608;6.916;2023-02-28T07:41:08;-1.10;99.90
15713;DHT22;7957;51.608;6.916;2023-02-28T07:43:35;-1.00;99.90
15713;DHT22;7957;51.608;6.916;2023-02-28T07:46:04;-1.00;99.90
15713;DHT22;7957;51.608;6.916;2023-02-28T07:48:31;-1.00;99.90
15713;DHT22;7957;51.608;6.916;2023-02-28T07:51:00;-1.00;99.90
15713;DHT22;7957;51.608;6.916;2023-02-28T07:53:28;-1.00;99.90
15713;DHT22;7957;51.608;6.916;2023-02-28T07:55:56;-1.00;99.90
15713;DHT22;7957;51.608;6.916;2023-02-28T07:58:24;-0.90;99.90
15713;DHT22;7957;51.608;6.916;2023-02-28T08:00:51;-0.90;99.90
15713;DHT22;7957;51.608;6.916;2023-02-28T08:03:20;-0.80;99.90
15713;DHT22;7957;51.608;6.916;2023-02-28T08:05:47;-0.80;99.90
15713;DHT22;7957;51.608;6.916;2023-02-28T08:08:16;-0.60;99.90
15713;DHT22;7957;51.608;6.916;2023-02-28T08:10:43;-0.70;99.90
15713;DHT22;7957;51.608;6.916;2023-02-28T08:13:10;-0.70;99.90
15713;DHT22;7957;51.608;6.916;2023-02-28T08:15:37;-0.60;99.90
15713;DHT22;7957;51.608;6.916;2023-02-28T08:18:04;-0.60;99.90
15713;DHT22;7957;51.608;6.916;2023-02-28T08:20:31;-0.50;99.90
15713;DHT22;7957;51.608;6.916;2023-02-28T08:22:58;-0.40;99.90
15713;DHT22;7957;51.608;6.916;2023-02-28T08:25:26;-0.40;99.90
15713;DHT22;7957;51.608;6.916;2023-02-28T08:27:53;-0.30;99.90
15713;DHT22;7957;51.608;6.916;2023-02-28T08:30:20;-0.30;99.90
15713;DHT22;7957;51.608;6.916;2023-02-28T08:32:47;-0.20;99.90
15713;DHT22;7957;51.608;6.916;2023-02-28T08:35:14;-0.20;99.90
15713;DHT22;7957;51.608;6.916;2023-02-28T08:37:41;-0.20;99.90
15713;DHT22;7957;51.608;6.916;2023-02-28T08:40:09;-0.30;99.90
15713;DHT22;7957;51.608;6.916;2023-02-28T08:42:40;-0.30;99.90
15713;DHT22;7957;51.608;6.916;2023-02-28T08:45:07;-0.20;99.90
15713;DHT22;7957;51.608;6.916;2023-02-28T08:47:34;-0.20;99.90
15713;DHT22;7957;51.608;6.916;2023-02-28T08:50:01;-0.10;99.90
15713;DHT22;7957;51.608;6.916;2023-02-28T08:52:28;-0.10;99.90
15713;DHT22;7957;51.608;6.916;2023-02-28T08:54:55;0.10;99.90
15713;DHT22;7957;51.608;6.916;2023-02-28T08:57:23;0.20;1.00
15713;DHT22;7957;51.608;6.916;2023-02-28T08:59:53;0.40;1.00
15713;DHT22;7957;51.608;6.916;2023-02-28T09:02:20;0.60;1.00
15713;DHT22;7957;51.608;6.916;2023-02-28T09:04:47;0.80;1.00
15713;DHT22;7957;51.608;6.916;2023-02-28T09:07:14;1.00;1.00
15713;DHT22;7957;51.608;6.916;2023-02-28T09:09:41;1.20;1.00
15713;DHT22;7957;51.608;6.916;2023-02-28T09:12:20;1.50;1.00
15713;DHT22;7957;51.608;6.916;2023-02-28T09:14:47;1.70;1.00
15713;DHT22;7957;51.608;6.916;2023-02-28T09:17:15;1.90;1.00
15713;DHT22;7957;51.608;6.916;2023-02-28T09:19:42;2.10;1.00
15713;DHT22;7957;51.608;6.916;2023-02-28T09:22:09;2.30;1.00
15713;DHT22;7957;51.608;6.916;2023-02-28T09:24:37;2.40;99.90
15713;DHT22;7957;51.608;6.916;2023-02-28T09:27:05;2.60;99.90
15713;DHT22;7957;51.608;6.916;2023-02-28T09:29:33;2.70;99.90
15713;DHT22;7957;51.608;6.916;2023-02-28T09:32:01;2.80;99.90
15713;DHT22;7957;51.608;6.916;2023-02-28T09:34:32;2.80;1.00
15713;DHT22;7957;51.608;6.916;2023-02-28T09:36:59;2.80;1.00
15713;DHT22;7957;51.608;6.916;2023-02-28T09:39:26;2.80;1.00
15713;DHT22;7957;51.608;6.916;2023-02-28T09:41:55;2.80;1.00
15713;DHT22;7957;51.608;6.916;2023-02-28T09:44:27;2.80;99.90
15713;DHT22;7957;51.608;6.916;2023-02-28T09:46:57;2.80;99.90
15713;DHT22;7957;51.608;6.916;2023-02-28T09:49:34;2.80;99.90
15713;DHT22;7957;51.608;6.916;2023-02-28T09:52:05;2.90;1.00
15713;DHT22;7957;51.608;6.916;2023-02-28T09:54:35;2.90;1.00
15713;DHT22;7957;51.608;6.916;2023-02-28T09:57:07;3.00;1.00
15713;DHT22;7957;51.608;6.916;2023-02-28T09:59:51;3.00;1.00
15713;DHT22;7957;51.608;6.916;2023-02-28T10:02:50;3.00;1.00
15713;DHT22;7957;51.608;6.916;2023-02-28T10:05:21;3.00;99.90
15713;DHT22;7957;51.608;6.916;2023-02-28T10:07:58;3.00;99.90
15713;DHT22;7957;51.608;6.916;2023-02-28T10:10:33;2.90;99.90
15713;DHT22;7957;51.608;6.916;2023-02-28T10:13:04;2.80;99.90
15713;DHT22;7957;51.608;6.916;2023-02-28T10:15:32;2.80;99.90
15713;DHT22;7957;51.608;6.916;2023-02-28T10:18:02;2.70;94.80
15713;DHT22;7957;51.608;6.916;2023-02-28T10:20:32;2.70;21.90
15713;DHT22;7957;51.608;6.916;2023-02-28T10:23:05;2.60;1.00
15713;DHT22;7957;51.608;6.916;2023-02-28T10:25:37;2.60;1.00
15713;DHT22;7957;51.608;6.916;2023-02-28T10:28:13;2.60;1.00
15713;DHT22;7957;51.608;6.916;2023-02-28T10:30:42;2.50;1.00
15713;DHT22;7957;51.608;6.916;2023-02-28T10:33:22;2.50;1.00
15713;DHT22;7957;51.608;6.916;2023-02-28T10:35:51;2.60;1.00
15713;DHT22;7957;51.608;6.916;2023-02-28T10:38:21;2.70;1.00
15713;DHT22;7957;51.608;6.916;2023-02-28T10:40:48;2.70;1.00
15713;DHT22;7957;51.608;6.916;2023-02-28T10:43:21;2.70;1.00
15713;DHT22;7957;51.608;6.916;2023-02-28T10:45:56;2.60;1.00
15713;DHT22;7957;51.608;6.916;2023-02-28T10:48:33;2.60;1.00
15713;DHT22;7957;51.608;6.916;2023-02-28T10:51:03;2.60;1.00
15713;DHT22;7957;51.608;6.916;2023-02-28T10:53:37;2.60;1.00
15713;DHT22;7957;51.608;6.916;2023-02-28T10:56:12;2.60;1.00
15713;DHT22;7957;51.608;6.916;2023-02-28T10:58:51;2.60;1.00
15713;DHT22;7957;51.608;6.916;2023-02-28T11:01:21;2.60;1.00
15713;DHT22;7957;51.608;6.916;2023-02-28T11:03:48;2.60;1.00
15713;DHT22;7957;51.608;6.916;2023-02-28T11:06:20;2.50;99.90
15713;DHT22;7957;51.608;6.916;2023-02-28T11:08:50;2.60;99.90
15713;DHT22;7957;51.608;6.916;2023-02-28T11:11:18;2.60;99.90
15713;DHT22;7957;51.608;6.916;2023-02-28T11:13:50;2.60;99.90
15713;DHT22;7957;51.608;6.916;2023-02-28T11:16:18;2.50;99.90
15713;DHT22;7957;51.608;6.916;2023-02-28T11:18:48;2.60;99.90
15713;DHT22;7957;51.608;6.916;2023-02-28T11:21:21;2.60;99.90
15713;DHT22;7957;51.608;6.916;2023-02-28T11:23:51;2.70;99.90
15713;DHT22;7957;51.608;6.916;2023-02-28T11:26:40;2.70;99.90
15713;DHT22;7957;51.608;6.916;2023-02-28T11:29:27;2.70;99.90
15713;DHT22;7957;51.608;6.916;2023-02-28T11:32:13;2.70;99.90
15713;DHT22;7957;51.608;6.916;2023-02-28T11:34:43;2.70;99.90
15713;DHT22;7957;51.608;6.916;2023-02-28T11:37:14;2.80;99.90
15713;DHT22;7957;51.608;6.916;2023-02-28T11:39:41;2.90;99.90
15713;DHT22;7957;51.608;6.916;2023-02-28T11:45:15;3.40;99.90
15713;DHT22;7957;51.608;6.916;2023-02-28T11:47:47;3.80;99.90
15713;DHT22;7957;51.608;6.916;2023-02-28T11:50:38;4.10;99.90
15713;DHT22;7957;51.608;6.916;2023-02-28T11:53:17;4.40;99.90
15713;DHT22;7957;51.608;6.916;2023-02-28T11:55:48;4.60;99.90
15713;DHT22;7957;51.608;6.916;2023-02-28T11:58:29;4.90;99.90
15713;DHT22;7957;51.608;6.916;2023-02-28T12:01:07;5.10;99.90
15713;DHT22;7957;51.608;6.916;2023-02-28T12:03:43;5.30;99.90
15713;DHT22;7957;51.608;6.916;2023-02-28T12:06:18;5.50;94.70
15713;DHT22;7957;51.608;6.916;2023-02-28T12:08:58;5.70;91.70
15713;DHT22;7957;51.608;6.916;2023-02-28T12:11:45;5.80;85.40
15713;DHT22;7957;51.608;6.916;2023-02-28T12:14:33;6.00;9.70
15713;DHT22;7957;51.608;6.916;2023-02-28T12:17:20;6.10;1.00
15713;DHT22;7957;51.608;6.916;2023-02-28T12:19:54;6.20;1.00
15713;DHT22;7957;51.608;6.916;2023-02-28T12:22:31;6.40;1.00
15713;DHT22;7957;51.608;6.916;2023-02-28T12:25:31;6.50;1.00
15713;DHT22;7957;51.608;6.916;2023-02-28T12:28:08;6.70;1.00
15713;DHT22;7957;51.608;6.916;2023-02-28T12:30:38;6.70;1.00
15713;DHT22;7957;51.608;6.916;2023-02-28T12:33:10;6.80;1.00
15713;DHT22;7957;51.608;6.916;2023-02-28T12:35:43;6.80;1.00
15713;DHT22;7957;51.608;6.916;2023-02-28T12:38:14;6.80;1.00
15713;DHT22;7957;51.608;6.916;2023-02-28T12:40:50;6.80;1.00
15713;DHT22;7957;51.608;6.916;2023-02-28T12:43:19;6.90;1.00
15713;DHT22;7957;51.608;6.916;2023-02-28T12:45:50;7.00;1.00
15713;DHT22;7957;51.608;6.916;2023-02-28T12:48:24;7.00;1.00
15713;DHT22;7957;51.608;6.916;2023-02-28T12:50:51;7.00;1.00
15713;DHT22;7957;51.608;6.916;2023-02-28T12:53:23;7.10;1.00
15713;DHT22;7957;51.608;6.916;2023-02-28T12:55:59;7.10;1.00
15713;DHT22;7957;51.608;6.916;2023-02-28T12:58:34;7.20;1.00
15713;DHT22;7957;51.608;6.916;2023-02-28T13:01:14;7.20;1.00
15713;DHT22;7957;51.608;6.916;2023-02-28T13:04:08;7.20;1.00
15713;DHT22;7957;51.608;6.916;2023-02-28T13:06:58;7.20;99.90
15713;DHT22;7957;51.608;6.916;2023-02-28T13:09:27;7.20;99.90
15713;DHT22;7957;51.608;6.916;2023-02-28T13:11:57;7.20;99.90
15713;DHT22;7957;51.608;6.916;2023-02-28T13:14:27;7.30;99.90
15713;DHT22;7957;51.608;6.916;2023-02-28T13:17:02;7.20;99.90
15713;DHT22;7957;51.608;6.916;2023-02-28T13:19:32;7.20;99.90
15713;DHT22;7957;51.608;6.916;2023-02-28T13:22:00;7.20;99.90
15713;DHT22;7957;51.608;6.916;2023-02-28T13:24:43;7.20;99.90
15713;DHT22;7957;51.608;6.916;2023-02-28T13:27:36;7.10;99.90
15713;DHT22;7957;51.608;6.916;2023-02-28T13:33:25;7.10;99.90
15713;DHT22;7957;51.608;6.916;2023-02-28T13:36:07;7.00;99.90
15713;DHT22;7957;51.608;6.916;2023-02-28T13:38:39;7.00;95.10
15713;DHT22;7957;51.608;6.916;2023-02-28T13:41:45;6.90;69.60
15713;DHT22;7957;51.608;6.916;2023-02-28T13:44:16;6.90;34.60
15713;DHT22;7957;51.608;6.916;2023-02-28T13:47:19;6.80;9.60
15713;DHT22;7957;51.608;6.916;2023-02-28T13:49:47;6.80;9.20
15713;DHT22;7957;51.608;6.916;2023-02-28T13:52:18;6.90;1.00
15713;DHT22;7957;51.608;6.916;2023-02-28T13:57:48;6.90;1.00
15713;DHT22;7957;51.608;6.916;2023-02-28T14:00:31;6.90;1.00
15713;DHT22;7957;51.608;6.916;2023-02-28T14:03:24;6.90;1.00
15713;DHT22;7957;51.608;6.916;2023-02-28T14:06:10;7.00;1.00
15713;DHT22;7957;51.608;6.916;2023-02-28T14:08:54;7.00;1.00
15713;DHT22;7957;51.608;6.916;2023-02-28T14:11:28;7.10;1.00
15713;DHT22;7957;51.608;6.916;2023-02-28T14:13:57;7.00;1.00
15713;DHT22;7957;51.608;6.916;2023-02-28T14:16:26;7.00;1.00
15713;DHT22;7957;51.608;6.916;2023-02-28T14:18:58;7.00;1.00
15713;DHT22;7957;51.608;6.916;2023-02-28T14:21:27;7.00;1.00
15713;DHT22;7957;51.608;6.916;2023-02-28T14:24:40;7.00;1.00
15713;DHT22;7957;51.608;6.916;2023-02-28T14:27:26;7.10;1.00
15713;DHT22;7957;51.608;6.916;2023-02-28T14:33:04;7.10;1.00
15713;DHT22;7957;51.608;6.916;2023-02-28T14:35:50;7.10;1.00
15713;DHT22;7957;51.608;6.916;2023-02-28T14:38:24;7.00;1.00
15713;DHT22;7957;51.608;6.916;2023-02-28T14:40:55;7.00;1.00
15713;DHT22;7957;51.608;6.916;2023-02-28T14:43:25;7.00;1.00
15713;DHT22;7957;51.608;6.916;2023-02-28T14:45:54;7.00;1.00
15713;DHT22;7957;51.608;6.916;2023-02-28T14:48:24;6.90;1.00
15713;DHT22;7957;51.608;6.916;2023-02-28T14:50:54;6.80;1.00
15713;DHT22;7957;51.608;6.916;2023-02-28T14:53:25;6.80;1.00
15713;DHT22;7957;51.608;6.916;2023-02-28T14:55:52;6.70;1.00
15713;DHT22;7957;51.608;6.916;2023-02-28T14:58:25;6.60;1.00
15713;DHT22;7957;51.608;6.916;2023-02-28T15:00:54;6.60;1.00
15713;DHT22;7957;51.608;6.916;2023-02-28T15:03:24;6.50;1.00
15713;DHT22;7957;51.608;6.916;2023-02-28T15:05:55;6.40;1.00
15713;DHT22;7957;51.608;6.916;2023-02-28T15:08:23;6.50;1.00
15713;DHT22;7957;51.608;6.916;2023-02-28T15:10:54;6.40;1.00
15713;DHT22;7957;51.608;6.916;2023-02-28T15:13:22;6.20;99.90
15713;DHT22;7957;51.608;6.916;2023-02-28T15:15:52;6.00;99.90
15713;DHT22;7957;51.608;6.916;2023-02-28T15:18:30;5.90;99.90
15713;DHT22;7957;51.608;6.916;2023-02-28T15:21:01;5.90;99.90
15713;DHT22;7957;51.608;6.916;2023-02-28T15:23:29;6.00;99.90
15713;DHT22;7957;51.608;6.916;2023-02-28T15:25:56;6.00;99.90
15713;DHT22;7957;51.608;6.916;2023-02-28T15:28:24;6.00;99.90
15713;DHT22;7957;51.608;6.916;2023-02-28T15:30:54;6.00;99.90
15713;DHT22;7957;51.608;6.916;2023-02-28T15:33:23;6.00;99.90
15713;DHT22;7957;51.608;6.916;2023-02-28T15:36:02;5.90;99.90
15713;DHT22;7957;51.608;6.916;2023-02-28T15:38:34;5.90;99.90
15713;DHT22;7957;51.608;6.916;2023-02-28T15:41:01;5.80;99.90
15713;DHT22;7957;51.608;6.916;2023-02-28T15:43:36;5.80;99.90
15713;DHT22;7957;51.608;6.916;2023-02-28T15:46:06;5.70;99.90
15713;DHT22;7957;51.608;6.916;2023-02-28T15:48:35;5.70;99.90
15713;DHT22;7957;51.608;6.916;2023-02-28T15:51:07;5.60;99.90
15713;DHT22;7957;51.608;6.916;2023-02-28T15:53:37;5.60;99.90
15713;DHT22;7957;51.608;6.916;2023-02-28T15:56:16;5.60;99.90
15713;DHT22;7957;51.608;6.916;2023-02-28T15:58:47;5.50;99.90
15713;DHT22;7957;51.608;6.916;2023-02-28T16:01:20;5.50;99.90
15713;DHT22;7957;51.608;6.916;2023-02-28T16:03:52;5.50;99.90
15713;DHT22;7957;51.608;6.916;2023-02-28T16:06:42;5.50;99.90
15713;DHT22;7957;51.608;6.916;2023-02-28T16:09:11;5.50;99.90
15713;DHT22;7957;51.608;6.916;2023-02-28T16:11:42;5.40;99.90
15713;DHT22;7957;51.608;6.916;2023-02-28T16:14:19;5.40;99.90
15713;DHT22;7957;51.608;6.916;2023-02-28T16:16:50;5.30;99.90
15713;DHT22;7957;51.608;6.916;2023-02-28T16:19:17;5.20;99.90
15713;DHT22;7957;51.608;6.916;2023-02-28T16:21:46;5.10;99.90
15713;DHT22;7957;51.608;6.916;2023-02-28T16:24:13;5.00;99.90
15713;DHT22;7957;51.608;6.916;2023-02-28T16:26:40;5.00;99.90
15713;DHT22;7957;51.608;6.916;2023-02-28T16:29:13;4.90;99.90
15713;DHT22;7957;51.608;6.916;2023-02-28T16:31:42;4.80;99.90
15713;DHT22;7957;51.608;6.916;2023-02-28T16:34:09;4.70;99.90
15713;DHT22;7957;51.608;6.916;2023-02-28T16:36:36;4.60;99.90
15713;DHT22;7957;51.608;6.916;2023-02-28T16:39:04;4.50;99.90
15713;DHT22;7957;51.608;6.916;2023-02-28T16:41:31;4.50;99.90
15713;DHT22;7957;51.608;6.916;2023-02-28T16:44:00;4.40;99.90